Time;durP1;ratioP1;P1;durP2;ratioP2;P2;SDS_P1;SDS_P2;PMS_P1;PMS_P2;Temp;Humidity;BMP_temperature;BMP_pressure;BME280_temperature;BME280_humidity;BME280_pressure;Samples;Min_cycle;Max_cycle;Signal;HPM_P1;HPM_P2
2022/10/03 00:02:21;;;;;;;2.70;1.40;;;;;;;15.10;95.15;100555.56;1916219;75;21023;-63
2022/10/03 00:04:59;;;;;;;2.98;1.87;;;;;;;15.10;95.16;100562.19;1915036;75;21591;-63
2022/10/03 00:08:02;;;;;;;7.17;1.60;;;;;;;15.05;95.02;100567.30;1916108;75;21497;-62
2022/10/03 00:10:49;;;;;;;3.92;1.87;;;;;;;15.03;94.93;100581.13;1915140;75;21501;-62
2022/10/03 00:13:24;;;;;;;4.25;1.50;;;;;;;14.99;94.70;100588.02;1916160;75;21128;-62
2022/10/03 00:16:05;;;;;;;4.22;1.72;;;;;;;14.97;94.62;100596.06;1916259;75;21034;-62
2022/10/03 00:18:45;;;;;;;3.35;1.55;;;;;;;14.96;94.75;100596.18;1907577;75;21569;-62
2022/10/03 00:21:28;;;;;;;6.30;1.37;;;;;;;14.95;94.77;100607.23;1898487;75;21041;-63
2022/10/03 00:24:23;;;;;;;4.50;1.50;;;;;;;14.96;94.86;100615.58;1900196;75;21111;-62
2022/10/03 00:26:57;;;;;;;3.30;1.10;;;;;;;14.95;94.42;100609.04;1900015;75;21030;-61
2022/10/03 00:29:40;;;;;;;2.98;1.60;;;;;;;14.91;94.16;100611.50;1891032;73;21085;-61
2022/10/03 00:32:15;;;;;;;7.33;1.40;;;;;;;14.85;94.00;100611.39;1912418;73;21168;-61
2022/10/03 00:34:52;;;;;;;2.45;1.30;;;;;;;14.78;94.01;100616.19;1900854;74;21515;-60
2022/10/03 00:37:49;;;;;;;4.22;1.15;;;;;;;14.70;94.02;100612.27;1907571;74;21375;-61
2022/10/03 00:40:34;;;;;;;3.47;1.62;;;;;;;14.61;94.02;100613.20;1904103;74;21170;-60
2022/10/03 00:43:42;;;;;;;4.85;1.30;;;;;;;14.51;93.95;100611.98;1928190;74;21480;-60
2022/10/03 00:46:28;;;;;;;4.72;1.40;;;;;;;14.41;93.96;100620.09;1932599;74;21010;-61
2022/10/03 00:49:31;;;;;;;6.40;1.50;;;;;;;14.30;94.03;100618.05;1937264;74;21045;-60
2022/10/03 00:52:20;;;;;;;2.58;1.05;;;;;;;14.20;94.10;100616.39;1883833;76;21120;-60
2022/10/03 00:55:08;;;;;;;3.35;1.25;;;;;;;14.11;94.23;100615.58;1883382;76;21218;-61
2022/10/03 00:57:54;;;;;;;6.80;1.30;;;;;;;14.04;94.35;100619.03;1841621;76;21067;-61
2022/10/03 01:00:26;;;;;;;4.55;1.60;;;;;;;14.00;94.51;100617.50;1873338;75;21462;-65
2022/10/03 01:03:09;;;;;;;4.35;1.37;;;;;;;13.98;94.57;100610.56;1857895;77;21166;-64
2022/10/03 01:05:45;;;;;;;;;;;;;;;13.94;94.61;100605.91;1860140;77;21042;-64
2022/10/03 01:08:34;;;;;;;1.70;1.40;;;;;;;13.90;94.52;100602.57;1858112;77;20134;-63
2022/10/03 01:11:24;;;;;;;4.72;1.27;;;;;;;13.86;94.65;100603.69;1877038;75;21094;-64
2022/10/03 01:14:08;;;;;;;4.47;1.70;;;;;;;13.82;94.83;100605.27;1904959;75;21121;-64
2022/10/03 01:16:56;;;;;;;5.87;1.60;;;;;;;13.81;94.93;100603.55;1905906;75;21132;-63
2022/10/03 01:19:46;;;;;;;2.20;1.47;;;;;;;13.78;94.97;100600.62;1905679;75;21090;-64
2022/10/03 01:22:37;;;;;;;3.58;1.87;;;;;;;13.76;95.03;100606.47;1905580;75;21105;-64
2022/10/03 01:25:21;;;;;;;2.35;1.50;;;;;;;13.75;95.14;100604.74;1905686;75;21075;-62
2022/10/03 01:31:02;;;;;;;2.83;1.72;;;;;;;13.72;95.07;100611.52;1905664;75;21485;-61
2022/10/03 01:33:33;;;;;;;1.35;0.95;;;;;;;13.71;94.70;100613.31;1905685;75;21104;-61
2022/10/03 01:36:11;;;;;;;5.22;1.45;;;;;;;13.71;94.55;100621.73;1905788;75;21043;-63
2022/10/03 01:38:48;;;;;;;4.17;1.60;;;;;;;13.69;94.37;100630.22;1894163;75;21063;-61
2022/10/03 01:41:41;;;;;;;3.60;1.40;;;;;;;13.67;94.32;100637.39;1872044;76;21059;-62
2022/10/03 01:44:27;;;;;;;5.83;1.82;;;;;;;13.63;94.22;100646.41;1865243;76;21203;-61
2022/10/03 01:47:19;;;;;;;4.00;1.40;;;;;;;13.59;94.24;100651.48;1857746;77;21046;-61
2022/10/03 01:49:53;;;;;;;11.80;2.25;;;;;;;13.55;94.26;100657.87;1878534;75;21034;-61
2022/10/03 01:52:37;;;;;;;4.72;1.80;;;;;;;13.51;94.16;100653.22;1873482;76;21074;-61
2022/10/03 01:55:12;;;;;;;4.55;1.80;;;;;;;13.46;94.09;100656.12;1873326;76;21114;-60
2022/10/03 01:57:47;;;;;;;3.72;1.87;;;;;;;13.41;94.09;100656.81;1867647;76;21070;-61
2022/10/03 02:00:21;;;;;;;4.78;1.90;;;;;;;13.37;94.04;100665.85;1837242;77;21181;-62
2022/10/03 02:03:11;;;;;;;4.92;2.10;;;;;;;13.31;93.92;100668.31;1866231;77;21063;-61
2022/10/03 02:05:43;;;;;;;5.30;1.90;;;;;;;13.26;93.85;100673.42;1847395;77;21165;-61
2022/10/03 02:08:30;;;;;;;6.50;2.27;;;;;;;13.21;93.76;100683.41;1866228;76;21074;-60
2022/10/03 02:11:08;;;;;;;6.45;3.22;;;;;;;13.13;93.70;100694.34;1849257;77;21058;-61
2022/10/03 02:13:42;;;;;;;4.95;2.10;;;;;;;13.05;93.61;100697.38;1849303;77;21132;-61
2022/10/03 02:16:49;;;;;;;8.10;2.70;;;;;;;12.98;93.55;100695.97;1849363;77;21207;-62
2022/10/03 02:19:36;;;;;;;5.00;2.05;;;;;;;12.89;93.66;100697.75;1849149;77;21528;-61
2022/10/03 02:22:07;;;;;;;5.55;3.00;;;;;;;12.83;93.69;100705.98;1817931;79;21530;-62
2022/10/03 02:24:42;;;;;;;6.17;3.00;;;;;;;12.78;93.91;100710.63;1804145;79;21115;-60
2022/10/03 02:27:43;;;;;;;8.28;2.95;;;;;;;12.74;93.98;100713.44;1844864;77;21042;-61
2022/10/03 02:30:36;;;;;;;6.72;2.55;;;;;;;12.72;93.98;100719.23;1859375;77;21504;-62
2022/10/03 02:33:13;;;;;;;6.80;3.10;;;;;;;12.69;93.97;100727.80;1857737;77;21052;-63
2022/10/03 02:36:04;;;;;;;8.00;3.42;;;;;;;12.65;93.99;100731.06;1856554;77;21085;-62
2022/10/03 02:39:12;;;;;;;7.90;3.10;;;;;;;12.64;94.03;100737.25;1857878;77;21134;-62
2022/10/03 02:42:04;;;;;;;7.80;3.02;;;;;;;12.62;94.03;100737.80;1860272;76;21499;-63
2022/10/03 02:44:39;;;;;;;6.65;2.75;;;;;;;12.62;94.07;100739.12;1841307;77;21156;-62
2022/10/03 02:47:14;;;;;;;7.08;2.35;;;;;;;12.60;94.01;100731.73;1858746;77;21097;-63
2022/10/03 02:49:51;;;;;;;3.72;2.08;;;;;;;12.57;94.00;100735.83;1831290;77;21116;-65
2022/10/03 02:52:38;;;;;;;4.37;2.08;;;;;;;12.55;93.97;100735.91;1852431;77;21536;-64
2022/10/03 02:55:16;;;;;;;5.80;2.20;;;;;;;12.52;93.96;100735.19;1867030;76;21046;-65
2022/10/03 02:57:58;;;;;;;4.15;2.47;;;;;;;12.45;93.84;100739.92;1859083;76;21160;-65
2022/10/03 03:00:38;;;;;;;5.58;2.47;;;;;;;12.40;93.82;100739.75;1855696;76;21140;-65
2022/10/03 03:03:12;;;;;;;7.42;2.77;;;;;;;12.34;93.83;100752.30;1862833;76;21560;-65
2022/10/03 03:05:47;;;;;;;5.35;2.75;;;;;;;12.28;93.86;100749.95;1822555;78;21199;-65
2022/10/03 03:08:51;;;;;;;6.28;2.52;;;;;;;12.24;93.86;100760.23;1838756;77;21183;-66
2022/10/03 03:11:39;;;;;;;5.78;2.35;;;;;;;12.20;93.87;100774.50;1855501;76;21563;-65
2022/10/03 03:14:23;;;;;;;5.10;3.02;;;;;;;12.13;93.93;100770.42;1869573;76;21556;-65
2022/10/03 03:17:03;;;;;;;4.92;2.20;;;;;;;12.07;93.82;100770.23;1826252;76;21135;-66
2022/10/03 03:19:37;;;;;;;6.42;2.83;;;;;;;12.00;93.76;100774.08;1860638;76;21163;-65
2022/10/03 03:22:19;;;;;;;7.80;2.85;;;;;;;11.93;93.76;100780.11;1820355;77;21182;-65
2022/10/03 03:25:02;;;;;;;4.95;3.02;;;;;;;11.91;93.97;100781.08;1833993;76;21074;-65
2022/10/03 03:27:43;;;;;;;5.92;2.90;;;;;;;11.89;94.34;100778.47;1860099;75;21528;-64
2022/10/03 03:30:14;;;;;;;6.03;2.77;;;;;;;11.92;94.38;100780.17;1860230;76;21140;-64
2022/10/03 03:33:07;;;;;;;5.45;2.47;;;;;;;11.98;94.24;100793.92;1858100;77;21022;-64
2022/10/03 03:35:53;;;;;;;5.35;2.83;;;;;;;11.98;94.05;100793.92;1857977;77;21520;-65
2022/10/03 03:38:31;;;;;;;5.50;3.10;;;;;;;11.98;93.89;100793.92;1858031;77;21053;-65
2022/10/03 03:41:08;;;;;;;6.75;2.70;;;;;;;11.99;93.76;100797.45;1858090;76;21026;-65
2022/10/03 03:43:43;;;;;;;7.65;3.27;;;;;;;12.00;93.46;100799.61;1857672;77;21932;-65
2022/10/03 03:46:37;;;;;;;6.42;3.17;;;;;;;12.03;93.45;100803.45;1858590;77;21215;-65
2022/10/03 03:49:42;;;;;;;4.87;3.35;;;;;;;12.07;93.29;100806.34;1858193;76;21105;-65
2022/10/03 03:52:47;;;;;;;8.13;4.78;;;;;;;12.08;93.17;100808.91;1858088;76;21076;-66
2022/10/03 03:55:29;;;;;;;10.10;4.95;;;;;;;12.13;93.11;100807.38;1856771;77;21081;-65
2022/10/03 03:58:04;;;;;;;8.38;3.20;;;;;;;12.15;93.11;100808.16;1854535;77;21633;-65
2022/10/03 04:01:10;;;;;;;5.22;3.27;;;;;;;12.19;93.05;100804.48;1853051;77;21145;-65
2022/10/03 04:03:57;;;;;;;4.62;2.70;;;;;;;12.21;92.71;100815.83;1850748;77;21531;-64
2022/10/03 04:06:35;;;;;;;4.92;2.50;;;;;;;12.26;92.35;100819.09;1852971;77;21140;-65
2022/10/03 04:09:21;;;;;;;5.10;2.42;;;;;;;12.31;92.29;100835.59;1854425;76;21120;-65
2022/10/03 04:11:59;;;;;;;6.22;2.80;;;;;;;12.36;92.11;100830.97;1853246;77;21046;-65
2022/10/03 04:14:33;;;;;;;7.15;3.55;;;;;;;12.41;91.40;100836.50;1853232;77;21097;-65
2022/10/03 04:20:28;;;;;;;13.98;7.95;;;;;;;12.54;91.25;100837.66;1853364;76;21536;-65
2022/10/03 04:23:15;;;;;;;14.00;9.80;;;;;;;12.65;91.42;100849.94;1851997;76;21165;-65
2022/10/03 04:26:06;;;;;;;5.97;3.85;;;;;;;12.74;91.40;100850.83;1851352;77;21026;-65
2022/10/03 04:29:13;;;;;;;18.12;3.22;;;;;;;12.84;91.32;100862.30;1852661;77;21054;-64
2022/10/03 04:32:07;;;;;;;4.92;2.62;;;;;;;12.87;90.93;100851.56;1853078;77;21050;-65
2022/10/03 04:34:46;;;;;;;5.25;2.70;;;;;;;12.89;90.63;100856.30;1852619;77;21138;-64
2022/10/03 04:37:33;;;;;;;8.13;2.50;;;;;;;12.88;90.36;100866.50;1851980;77;21054;-64
2022/10/03 04:40:32;;;;;;;8.95;3.37;;;;;;;12.88;90.37;100865.18;1822118;78;21069;-65
2022/10/03 04:43:09;;;;;;;5.72;2.98;;;;;;;12.86;90.39;100869.69;1813053;79;21527;-64
2022/10/03 04:45:47;;;;;;;8.70;3.40;;;;;;;12.82;90.37;100877.33;1822530;78;21488;-64
2022/10/03 04:48:38;;;;;;;5.85;3.02;;;;;;;12.81;90.46;100880.92;1832558;76;21109;-64
2022/10/03 04:51:24;;;;;;;6.20;3.20;;;;;;;12.81;90.37;100887.53;1821815;77;21493;-64
2022/10/03 04:54:03;;;;;;;4.40;2.72;;;;;;;12.87;90.45;100887.23;1851582;77;21070;-64
2022/10/03 04:56:52;;;;;;;5.25;2.55;;;;;;;12.95;90.50;100887.75;1851627;77;21120;-65
2022/10/03 04:59:50;;;;;;;3.80;2.22;;;;;;;13.10;90.39;100894.95;1884326;76;21128;-64
2022/10/03 05:02:36;;;;;;;5.87;2.33;;;;;;;13.27;90.16;100894.63;1884916;76;21148;-64
2022/10/03 05:05:20;;;;;;;3.77;2.30;;;;;;;13.45;89.97;100900.38;1884299;76;21050;-65
2022/10/03 05:08:00;;;;;;;3.67;2.00;;;;;;;13.64;89.05;100904.30;1879365;76;21058;-65
2022/10/03 05:10:40;;;;;;;3.35;1.98;;;;;;;13.95;87.54;100909.88;1853319;77;21508;-64
2022/10/03 05:13:25;;;;;;;5.00;1.98;;;;;;;14.33;87.60;100905.27;1853482;77;21050;-66
2022/10/03 05:16:16;;;;;;;4.67;1.90;;;;;;;14.71;86.50;100904.20;1852428;77;21066;-64
2022/10/03 05:19:00;;;;;;;2.12;1.30;;;;;;;15.31;86.93;100908.41;1852774;76;21050;-64
2022/10/03 05:21:40;;;;;;;3.52;1.50;;;;;;;15.90;85.85;100907.27;1851472;77;21124;-65
2022/10/03 05:24:15;;;;;;;3.52;1.55;;;;;;;16.25;85.01;100899.45;1853367;77;21128;-64
2022/10/03 05:26:49;;;;;;;3.70;1.35;;;;;;;16.40;83.67;100905.19;1808744;77;21101;-65
2022/10/03 05:29:55;;;;;;;4.17;1.30;;;;;;;16.37;83.80;100904.04;1851168;77;21568;-65
2022/10/03 05:32:45;;;;;;;5.17;1.70;;;;;;;16.46;83.34;100909.28;1851492;77;21174;-65
2022/10/03 05:35:35;;;;;;;3.52;1.35;;;;;;;16.58;81.20;100920.47;1851462;77;21583;-65
2022/10/03 05:38:15;;;;;;;1.40;1.00;;;;;;;17.06;79.31;100917.53;1851190;77;21034;-64
2022/10/03 05:40:50;;;;;;;2.27;1.12;;;;;;;17.70;76.08;100924.02;1851458;77;21607;-63
2022/10/03 05:43:41;;;;;;;3.72;1.10;;;;;;;18.38;75.80;100929.31;1851473;77;21035;-62
2022/10/03 05:46:32;;;;;;;2.40;1.20;;;;;;;18.97;74.96;100931.45;1851618;77;21034;-63
2022/10/03 05:49:04;;;;;;;5.90;1.55;;;;;;;19.67;73.31;100922.29;1854676;77;21603;-63
2022/10/03 05:51:52;;;;;;;1.95;1.20;;;;;;;20.08;70.99;100926.85;1850432;77;21074;-63
2022/10/03 05:54:44;;;;;;;4.35;1.25;;;;;;;20.57;71.13;100936.94;1851950;77;21058;-61
2022/10/03 05:57:37;;;;;;;2.08;0.98;;;;;;;20.69;65.77;100931.97;1853145;77;21102;-62
2022/10/03 06:00:13;;;;;;;2.87;1.00;;;;;;;20.81;66.28;100935.53;1851987;76;21056;-63
2022/10/03 06:02:53;;;;;;;1.35;0.80;;;;;;;21.16;65.87;100943.91;1853433;76;21050;-63
2022/10/03 06:05:25;;;;;;;1.02;0.70;;;;;;;21.27;64.94;100952.42;1865818;76;21055;-64
2022/10/03 06:08:08;;;;;;;2.00;0.95;;;;;;;21.56;65.36;100952.72;1881737;76;21113;-64
2022/10/03 06:10:57;;;;;;;2.52;0.90;;;;;;;21.93;65.08;100946.99;1861944;76;21451;-64
2022/10/03 06:13:38;;;;;;;1.10;0.80;;;;;;;22.44;65.45;100954.81;1867018;76;21545;-63
2022/10/03 06:16:21;;;;;;;2.98;0.68;;;;;;;23.01;62.72;100953.91;1854883;76;21677;-63
2022/10/03 06:19:14;;;;;;;0.93;0.80;;;;;;;23.63;62.35;100949.29;1853227;77;21148;-63
2022/10/03 06:22:08;;;;;;;2.00;1.00;;;;;;;24.14;63.39;100952.20;1853353;77;21042;-64
2022/10/03 06:24:55;;;;;;;2.10;0.70;;;;;;;24.72;55.41;100934.28;1852383;76;21058;-63
2022/10/03 06:27:52;;;;;;;1.47;0.90;;;;;;;24.24;54.40;100965.16;1851512;77;21031;-63
2022/10/03 06:30:30;;;;;;;4.58;1.25;;;;;;;24.57;54.78;100965.70;1851450;77;21058;-63
2022/10/03 06:33:14;;;;;;;1.45;0.78;;;;;;;24.61;52.78;100971.14;1841631;77;21196;-63
2022/10/03 06:36:03;;;;;;;2.35;1.02;;;;;;;24.25;53.50;100983.02;1822557;79;21163;-63
2022/10/03 06:38:38;;;;;;;1.07;0.70;;;;;;;24.08;47.69;100972.95;1843494;76;21489;-63
2022/10/03 06:41:43;;;;;;;3.12;1.35;;;;;;;23.69;52.84;100981.81;1851132;77;21587;-64
2022/10/03 06:44:39;;;;;;;3.20;0.80;;;;;;;23.27;53.32;100993.25;1852964;76;21713;-63
2022/10/03 06:47:23;;;;;;;3.60;0.95;;;;;;;24.08;51.42;100990.44;1851425;77;21093;-64
2022/10/03 06:49:55;;;;;;;;;;;;;;;22.94;50.84;100986.67;1803731;76;21504;-63
2022/10/03 06:52:38;;;;;;;2.20;0.85;;;;;;;23.01;52.77;100993.68;1867110;76;20104;-63
2022/10/03 06:55:32;;;;;;;1.25;0.70;;;;;;;22.85;53.72;100996.87;1861095;76;21133;-63
2022/10/03 06:58:13;;;;;;;1.00;0.90;;;;;;;22.85;53.01;100990.63;1851700;76;21453;-63
2022/10/03 07:01:01;;;;;;;2.40;1.00;;;;;;;23.89;52.85;100988.10;1856888;77;21203;-62
2022/10/03 07:03:39;;;;;;;2.77;1.00;;;;;;;24.73;51.42;100984.42;1856865;75;21046;-63
2022/10/03 07:06:14;;;;;;;2.37;0.80;;;;;;;25.76;49.58;100993.30;1856754;75;21203;-63
2022/10/03 07:09:22;;;;;;;1.52;0.90;;;;;;;25.79;48.84;100991.16;1856839;77;21559;-63
2022/10/03 07:12:05;;;;;;;3.25;0.98;;;;;;;26.05;48.66;100988.23;1856973;76;21167;-63
2022/10/03 07:14:54;;;;;;;;;;;;;;;25.92;46.91;100989.94;1859673;77;21050;-63
2022/10/03 07:17:42;;;;;;;6.53;0.70;;;;;;;25.92;44.35;100966.53;1882683;76;20120;-63
2022/10/03 07:20:45;;;;;;;1.20;0.82;;;;;;;25.90;43.86;100973.90;1889935;76;21520;-63
2022/10/03 07:23:34;;;;;;;1.52;0.90;;;;;;;26.32;43.41;100971.05;1890479;76;21489;-63
2022/10/03 07:26:27;;;;;;;4.17;0.98;;;;;;;27.05;44.81;100981.50;1882097;76;21549;-64
2022/10/03 07:28:58;;;;;;;3.62;0.75;;;;;;;27.92;41.36;100973.18;1856556;77;21058;-64
2022/10/03 07:31:33;;;;;;;1.47;0.80;;;;;;;27.89;41.85;100978.91;1856266;77;21163;-63
2022/10/03 07:34:18;;;;;;;3.22;0.90;;;;;;;27.69;38.72;100977.02;1856810;77;21054;-63
2022/10/03 07:40:05;;;;;;;1.70;0.80;;;;;;;27.82;37.00;100979.23;1844662;78;21044;-63
2022/10/03 07:42:53;;;;;;;3.75;0.70;;;;;;;27.14;38.88;100983.74;1819579;78;21051;-62
2022/10/03 07:45:35;;;;;;;2.55;1.10;;;;;;;26.49;37.99;100989.09;1845117;78;21552;-64
2022/10/03 07:48:27;;;;;;;1.47;0.72;;;;;;;27.07;38.68;100982.18;1856133;76;21109;-63
2022/10/03 07:51:20;;;;;;;0.70;0.70;;;;;;;27.15;38.02;100978.69;1894268;76;21500;-63
2022/10/03 07:54:11;;;;;;;1.72;0.72;;;;;;;27.32;38.30;100979.11;1892516;75;21187;-65
2022/10/03 07:56:55;;;;;;;3.65;1.10;;;;;;;27.72;37.98;100977.54;1893941;76;21042;-63
2022/10/03 07:59:43;;;;;;;1.87;0.80;;;;;;;27.58;37.20;100966.52;1869112;75;21058;-63
2022/10/03 08:02:37;;;;;;;1.95;0.60;;;;;;;27.58;37.91;100975.98;1857237;75;21066;-64
2022/10/03 08:05:16;;;;;;;2.25;0.80;;;;;;;28.11;38.29;100971.51;1855900;77;21058;-63
2022/10/03 08:07:53;;;;;;;5.62;0.88;;;;;;;28.72;37.99;100966.20;1858373;77;21053;-62
2022/10/03 08:10:59;;;;;;;1.65;1.05;;;;;;;28.93;36.62;100971.06;1858552;76;21145;-63
2022/10/03 08:13:43;;;;;;;2.72;1.30;;;;;;;29.11;36.34;100970.31;1858279;77;21028;-63
2022/10/03 08:16:17;;;;;;;2.70;0.85;;;;;;;29.34;33.74;100965.48;1858022;76;21050;-63
2022/10/03 08:18:58;;;;;;;2.37;0.80;;;;;;;28.59;36.79;100977.56;1856640;77;21521;-65
2022/10/03 08:21:33;;;;;;;3.80;0.82;;;;;;;29.11;37.41;100971.67;1856871;77;21046;-64
2022/10/03 08:24:20;;;;;;;1.40;0.80;;;;;;;27.81;38.77;100972.13;1856576;75;21035;-64
2022/10/03 08:27:13;;;;;;;3.25;1.15;;;;;;;27.93;39.34;100968.13;1869084;76;21184;-63
2022/10/03 08:29:53;;;;;;;1.52;0.80;;;;;;;28.16;39.03;100966.09;1890561;76;21042;-64
2022/10/03 08:32:36;;;;;;;3.45;0.80;;;;;;;28.77;38.09;100962.47;1871453;76;21066;-64
2022/10/03 08:35:25;;;;;;;3.50;0.90;;;;;;;29.41;34.95;100960.52;1890458;76;21090;-62
2022/10/03 08:38:02;;;;;;;1.98;0.70;;;;;;;29.38;33.86;100955.97;1865242;76;21579;-63
2022/10/03 08:40:53;;;;;;;3.72;0.80;;;;;;;29.08;33.50;100961.17;1856232;77;21089;-63
2022/10/03 08:43:35;;;;;;;1.50;0.50;;;;;;;28.64;33.06;100957.59;1856946;77;21122;-63
2022/10/03 08:46:30;;;;;;;2.70;0.90;;;;;;;28.67;33.84;100964.86;1856762;76;21160;-63
2022/10/03 08:49:24;;;;;;;0.82;0.60;;;;;;;28.57;30.88;100953.88;1871393;76;21589;-63
2022/10/03 08:52:20;;;;;;;1.22;0.50;;;;;;;28.97;34.43;100955.61;1861729;76;21694;-63
2022/10/03 08:55:16;;;;;;;1.17;0.62;;;;;;;29.20;32.23;100946.77;1856929;77;21098;-63
2022/10/03 08:57:47;;;;;;;0.88;0.60;;;;;;;29.16;32.24;100957.60;1797651;80;21539;-63
2022/10/03 09:00:22;;;;;;;2.58;0.95;;;;;;;28.96;32.68;100953.11;1842310;76;21567;-63
2022/10/03 09:03:14;;;;;;;1.70;0.60;;;;;;;28.95;32.18;100946.81;1867760;75;21596;-65
2022/10/03 09:06:23;;;;;;;0.53;0.50;;;;;;;28.63;31.67;100936.95;1889347;75;21065;-64
2022/10/03 09:09:09;;;;;;;1.00;0.60;;;;;;;27.98;34.49;100947.30;1890851;75;21184;-64
2022/10/03 09:11:55;;;;;;;1.77;0.60;;;;;;;27.24;33.99;100957.44;1868198;75;21045;-63
2022/10/03 09:14:33;;;;;;;2.30;0.82;;;;;;;27.49;34.98;100957.53;1867800;75;21131;-64
2022/10/03 09:17:29;;;;;;;1.12;0.70;;;;;;;28.40;34.80;100947.62;1865905;77;21066;-64
2022/10/03 09:20:01;;;;;;;0.50;0.40;;;;;;;28.62;30.71;100959.63;1865978;77;21050;-63
2022/10/03 09:22:53;;;;;;;0.60;0.30;;;;;;;29.23;32.73;100966.23;1865926;75;21712;-64
2022/10/03 09:25:51;;;;;;;1.50;0.40;;;;;;;29.62;33.82;100974.83;1867043;76;21053;-63
2022/10/03 09:28:37;;;;;;;1.85;0.60;;;;;;;28.81;35.79;100967.38;1866333;77;21066;-64
2022/10/03 09:31:41;;;;;;;0.55;0.40;;;;;;;29.29;32.27;100966.52;1867741;77;21127;-63
2022/10/03 09:34:30;;;;;;;0.80;0.40;;;;;;;29.83;32.34;100969.28;1868685;75;21734;-63
2022/10/03 09:37:30;;;;;;;3.60;0.47;;;;;;;29.84;29.36;100962.81;1896804;75;21132;-63
2022/10/03 09:40:03;;;;;;;0.90;0.55;;;;;;;29.63;27.90;100961.58;1869267;75;21082;-63
2022/10/03 09:43:08;;;;;;;0.60;0.50;;;;;;;29.42;27.44;100962.23;1839920;75;21109;-64
2022/10/03 09:45:42;;;;;;;3.30;1.30;;;;;;;29.00;28.03;100966.12;1877181;75;21112;-63
2022/10/03 09:48:14;;;;;;;1.02;0.55;;;;;;;28.69;29.69;100970.11;1883011;75;21030;-64
2022/10/03 09:51:01;;;;;;;1.00;0.70;;;;;;;29.04;30.59;100965.26;1874421;75;21172;-66
2022/10/03 09:54:06;;;;;;;2.77;0.60;;;;;;;29.55;30.56;100972.50;1854029;75;21537;-67
2022/10/03 09:56:55;;;;;;;1.85;0.40;;;;;;;29.15;31.25;100959.48;1881463;75;21520;-65
2022/10/03 09:59:47;;;;;;;1.20;0.68;;;;;;;28.56;32.07;100969.81;1867762;77;21073;-68
2022/10/03 10:02:38;;;;;;;0.70;0.50;;;;;;;28.11;31.46;100955.27;1864106;75;21505;-64
2022/10/03 10:05:26;;;;;;;1.57;0.75;;;;;;;27.12;32.53;100969.55;1866011;77;21103;-65
2022/10/03 10:08:03;;;;;;;0.70;0.40;;;;;;;27.13;32.50;100966.69;1865970;77;21066;-66
2022/10/03 10:10:59;;;;;;;0.93;0.30;;;;;;;26.29;32.52;100975.44;1829736;77;21078;-65
2022/10/03 10:13:33;;;;;;;1.85;0.50;;;;;;;25.56;32.65;100973.70;1865865;75;21282;-64
2022/10/03 10:16:34;;;;;;;0.95;0.50;;;;;;;25.99;32.04;100978.91;1865969;76;21050;-64
2022/10/03 10:19:21;;;;;;;1.32;0.45;;;;;;;25.74;32.77;100975.08;1867400;75;21442;-64
2022/10/03 10:22:12;;;;;;;1.50;0.50;;;;;;;25.27;33.14;100978.80;1867342;75;21166;-64
2022/10/03 10:25:06;;;;;;;0.82;0.50;;;;;;;25.04;33.80;100976.44;1866433;75;21516;-62
2022/10/03 10:28:03;;;;;;;0.50;0.50;;;;;;;26.38;33.32;100979.38;1874048;75;21046;-62
2022/10/03 10:30:56;;;;;;;0.55;0.30;;;;;;;26.49;33.18;100979.63;1906089;75;21680;-64
2022/10/03 10:33:46;;;;;;;1.55;0.50;;;;;;;26.25;31.07;100971.37;1906438;75;21069;-63
2022/10/03 10:36:51;;;;;;;0.37;0.30;;;;;;;26.67;30.93;100977.41;1906307;75;21046;-63
2022/10/03 10:39:31;;;;;;;3.22;0.47;;;;;;;26.63;31.22;100978.73;1870518;75;21206;-61
2022/10/03 10:42:09;;;;;;;1.25;0.50;;;;;;;26.52;31.40;100987.43;1865569;77;21575;-61
2022/10/03 10:45:12;;;;;;;1.80;0.30;;;;;;;26.32;31.38;100974.62;1879080;75;21049;-61
2022/10/03 10:47:47;;;;;;;1.95;0.40;;;;;;;25.59;31.63;100978.81;1867256;75;21524;-62
2022/10/03 10:50:42;;;;;;;2.50;0.60;;;;;;;24.63;33.06;100984.46;1894514;74;21025;-61
2022/10/03 10:53:31;;;;;;;1.47;0.40;;;;;;;24.07;34.02;100988.25;1870994;75;21062;-61
2022/10/03 10:56:19;;;;;;;0.98;0.50;;;;;;;23.60;34.90;100989.37;1888869;75;21061;-61
2022/10/03 10:59:15;;;;;;;0.40;0.30;;;;;;;23.44;35.11;100987.23;1899397;75;21018;-65
2022/10/03 11:01:53;;;;;;;1.55;0.30;;;;;;;24.59;34.54;100978.52;1875838;75;21148;-62
2022/10/03 11:04:39;;;;;;;2.12;0.40;;;;;;;25.74;32.60;100974.58;1875416;75;21058;-63
2022/10/03 11:07:45;;;;;;;2.05;0.50;;;;;;;26.22;30.55;100971.16;1872116;75;21057;-64
2022/10/03 11:10:32;;;;;;;1.55;0.47;;;;;;;26.66;31.27;100977.08;1899656;75;21536;-62
2022/10/03 11:13:26;;;;;;;3.25;0.60;;;;;;;27.20;31.23;100980.89;1877365;75;21570;-62
2022/10/03 11:16:24;;;;;;;1.45;0.70;;;;;;;27.22;29.78;100977.00;1861956;77;21081;-64
2022/10/03 11:19:01;;;;;;;1.85;0.40;;;;;;;26.85;30.32;100973.30;1873589;75;21049;-63
2022/10/03 11:22:07;;;;;;;1.20;0.30;;;;;;;26.66;30.95;100971.67;1880076;76;21792;-64
2022/10/03 11:25:06;;;;;;;0.80;0.50;;;;;;;26.69;31.55;100978.09;1865158;77;21592;-63
2022/10/03 11:27:40;;;;;;;1.55;0.78;;;;;;;26.54;31.90;100977.31;1858551;76;21040;-61
2022/10/03 11:30:36;;;;;;;1.00;0.72;;;;;;;26.38;32.49;100985.30;1888589;76;21047;-63
2022/10/03 11:33:31;;;;;;;0.72;0.50;;;;;;;26.17;32.95;100987.84;1888585;76;21544;-63
2022/10/03 11:36:28;;;;;;;1.02;0.30;;;;;;;25.63;33.00;100988.28;1886304;75;21526;-66
2022/10/03 11:39:03;;;;;;;2.30;0.40;;;;;;;25.16;33.46;100983.00;1842337;77;21053;-65
2022/10/03 11:41:34;;;;;;;1.20;0.50;;;;;;;24.69;34.02;100981.68;1878659;76;21115;-63
2022/10/03 11:44:21;;;;;;;0.55;0.40;;;;;;;24.32;34.01;100986.47;1867330;75;21050;-65
2022/10/03 11:46:53;;;;;;;0.80;0.40;;;;;;;23.94;34.56;100993.55;1863916;76;21058;-66
2022/10/03 11:49:34;;;;;;;0.40;0.40;;;;;;;23.61;35.17;100991.55;1844375;75;21109;-65
2022/10/03 11:52:28;;;;;;;3.62;0.70;;;;;;;23.41;35.60;100995.56;1842349;77;21058;-64
2022/10/03 11:55:05;;;;;;;0.55;0.50;;;;;;;23.25;35.73;100997.91;1865912;76;21594;-64
2022/10/03 11:57:39;;;;;;;0.75;0.42;;;;;;;23.05;36.12;100996.48;1824515;77;21574;-64
2022/10/03 12:00:22;;;;;;;0.70;0.50;;;;;;;22.97;36.38;101000.81;1864504;77;21081;-64
2022/10/03 12:03:18;;;;;;;1.20;0.57;;;;;;;22.86;36.52;100995.03;1858446;77;21164;-63
2022/10/03 12:09:23;;;;;;;4.55;1.12;;;;;;;22.62;37.00;100992.64;1857035;77;21564;-62
2022/10/03 12:12:13;;;;;;;0.95;0.50;;;;;;;22.47;37.31;100982.73;1846287;76;21099;-63
2022/10/03 12:14:45;;;;;;;1.87;0.82;;;;;;;22.40;37.60;100989.60;1859421;76;21169;-64
2022/10/03 12:17:16;;;;;;;1.12;0.60;;;;;;;22.35;37.91;100983.27;1827921;77;21065;-63
2022/10/03 12:19:53;;;;;;;1.95;0.57;;;;;;;22.23;38.22;100982.45;1844076;76;21061;-65
2022/10/03 12:22:34;;;;;;;2.35;0.55;;;;;;;22.18;38.42;100983.33;1889286;75;21066;-65
2022/10/03 12:25:08;;;;;;;0.60;0.50;;;;;;;22.12;38.70;100971.79;1899172;75;21246;-64
2022/10/03 12:27:58;;;;;;;3.22;0.98;;;;;;;22.07;38.96;100976.19;1857270;76;21082;-65
2022/10/03 12:30:30;;;;;;;1.55;0.60;;;;;;;22.00;39.10;100980.35;1856906;77;21144;-67
2022/10/03 12:33:18;;;;;;;1.17;0.60;;;;;;;21.92;39.09;100971.62;1856875;77;21054;-67
2022/10/03 12:35:53;;;;;;;0.65;0.40;;;;;;;21.88;39.30;100974.70;1829504;77;21571;-66
2022/10/03 12:38:37;;;;;;;2.67;0.62;;;;;;;21.85;39.26;100971.77;1857094;77;21567;-66
2022/10/03 12:41:21;;;;;;;1.30;0.50;;;;;;;21.84;39.35;100971.42;1854846;77;21124;-67
2022/10/03 12:43:52;;;;;;;1.52;0.50;;;;;;;21.83;39.70;100973.72;1856908;77;21622;-65
2022/10/03 12:46:46;;;;;;;1.20;0.42;;;;;;;21.80;39.97;100969.98;1856291;77;21130;-66
2022/10/03 12:49:35;;;;;;;2.15;0.60;;;;;;;21.77;40.19;100981.78;1881529;76;21021;-66
2022/10/03 12:52:06;;;;;;;0.40;0.35;;;;;;;21.71;40.35;100980.12;1894129;76;21484;-65
2022/10/03 12:54:51;;;;;;;2.20;0.62;;;;;;;21.67;40.26;100979.98;1881872;75;21053;-69
2022/10/03 12:57:39;;;;;;;1.20;0.47;;;;;;;21.61;40.08;100980.50;1855543;77;21034;-66
2022/10/03 13:00:26;;;;;;;5.83;1.07;;;;;;;21.48;40.19;100974.79;1866015;75;21053;-69
2022/10/03 13:03:16;;;;;;;5.62;0.70;;;;;;;21.47;41.13;100977.13;1890568;75;21205;-69
2022/10/03 13:05:54;;;;;;;1.02;0.42;;;;;;;21.46;41.34;100975.41;1852087;77;21050;-67
